Time;durP1;ratioP1;P1;durP2;ratioP2;P2;SDS_P1;SDS_P2;PMS_P1;PMS_P2;Temp;Humidity;BMP_temperature;BMP_pressure;BME280_temperature;BME280_humidity;BME280_pressure;Samples;Min_cycle;Max_cycle;Signal;HPM_P1;HPM_P2
2022/10/03 00:00:10;;;;;;;3.47;1.50;;;;;;;10.00;100.00;101429.66;5007158;28;20027;-75
2022/10/03 00:03:01;;;;;;;4.78;1.85;;;;;;;9.90;100.00;101433.81;5025249;28;20503;-76
2022/10/03 00:06:10;;;;;;;3.95;1.90;;;;;;;9.81;100.00;101435.22;5009920;28;20042;-74
2022/10/03 00:08:46;;;;;;;2.72;1.17;;;;;;;9.80;100.00;101449.97;4996735;28;20046;-76
2022/10/03 00:11:31;;;;;;;3.55;1.38;;;;;;;9.72;100.00;101436.66;5003446;28;20038;-75
2022/10/03 00:14:43;;;;;;;2.00;1.17;;;;;;;9.77;100.00;101450.44;5012116;28;20034;-75
2022/10/03 00:17:27;;;;;;;2.58;1.35;;;;;;;9.75;100.00;101458.03;5021570;28;20083;-76
2022/10/03 00:20:07;;;;;;;1.38;0.90;;;;;;;9.65;100.00;101452.31;5014019;28;20078;-76
2022/10/03 00:22:41;;;;;;;4.93;1.23;;;;;;;9.64;100.00;101445.19;5012941;28;20091;-77
2022/10/03 00:25:49;;;;;;;4.03;1.52;;;;;;;9.59;100.00;101454.94;4996836;28;20026;-76
2022/10/03 00:28:42;;;;;;;3.78;1.35;;;;;;;9.54;100.00;101457.50;4996781;28;20057;-76
2022/10/03 00:31:19;;;;;;;2.30;1.23;;;;;;;9.48;100.00;101458.44;5002356;28;20026;-75
2022/10/03 00:34:04;;;;;;;4.05;1.88;;;;;;;9.46;100.00;101454.28;5019204;28;20022;-76
2022/10/03 00:36:48;;;;;;;3.67;1.40;;;;;;;9.47;100.00;101462.25;5009224;28;20034;-76
2022/10/03 00:39:43;;;;;;;2.40;1.33;;;;;;;9.39;100.00;101446.22;5012780;28;20057;-75
2022/10/03 00:42:43;;;;;;;2.63;1.35;;;;;;;9.47;100.00;101456.78;5009420;28;20287;-74
2022/10/03 00:45:30;;;;;;;1.80;1.10;;;;;;;9.49;100.00;101472.94;5007687;28;20034;-75
2022/10/03 00:47:59;;;;;;;2.30;1.00;;;;;;;9.48;100.00;101474.84;5016412;28;20128;-75
2022/10/03 00:50:49;;;;;;;2.85;1.10;;;;;;;9.46;100.00;101476.94;5016162;28;20030;-74
2022/10/03 00:53:27;;;;;;;3.25;1.20;;;;;;;9.38;100.00;101464.47;5001870;28;20105;-75
2022/10/03 00:56:16;;;;;;;1.50;0.93;;;;;;;9.34;100.00;101470.63;5004649;28;20027;-74
2022/10/03 00:58:53;;;;;;;3.08;1.15;;;;;;;9.33;100.00;101468.97;5001065;28;20026;-75
2022/10/03 01:01:30;;;;;;;2.03;0.90;;;;;;;9.32;100.00;101470.03;5003873;28;20042;-76
2022/10/03 01:04:17;;;;;;;1.67;0.93;;;;;;;9.26;100.00;101469.88;5002215;28;20032;-75
2022/10/03 01:07:11;;;;;;;4.15;1.08;;;;;;;9.24;100.00;101472.03;4999390;28;20097;-76
2022/10/03 01:09:58;;;;;;;2.45;0.80;;;;;;;9.24;100.00;101479.38;4986434;28;20129;-75
2022/10/03 01:13:10;;;;;;;1.52;1.00;;;;;;;9.27;100.00;101481.63;4999500;28;20031;-74
2022/10/03 01:15:57;;;;;;;0.75;0.60;;;;;;;9.31;100.00;101484.75;5001739;28;20070;-74
2022/10/03 01:19:16;;;;;;;0.77;0.65;;;;;;;9.33;100.00;101479.88;4995495;28;20034;-74
2022/10/03 01:22:05;;;;;;;3.50;0.90;;;;;;;9.33;100.00;101471.69;4998219;28;20030;-73
2022/10/03 01:24:49;;;;;;;2.50;0.90;;;;;;;9.34;100.00;101473.38;4992958;28;20026;-75
2022/10/03 01:27:24;;;;;;;2.20;1.05;;;;;;;9.31;100.00;101485.56;5000371;28;20036;-74
2022/10/03 01:32:56;;;;;;;2.63;1.15;;;;;;;9.24;100.00;101472.03;5003053;28;20132;-74
2022/10/03 01:35:27;;;;;;;2.63;1.10;;;;;;;9.22;100.00;101465.13;4998353;28;20058;-74
2022/10/03 01:38:07;;;;;;;1.60;0.90;;;;;;;9.18;100.00;101467.47;4995991;28;20090;-73
2022/10/03 01:40:32;;;;;;;1.25;0.68;;;;;;;9.14;100.00;101468.16;5030165;28;20038;-73
2022/10/03 01:43:01;;;;;;;2.00;0.95;;;;;;;9.07;100.00;101460.91;4998986;28;20094;-74
2022/10/03 01:45:48;;;;;;;4.70;1.17;;;;;;;9.02;100.00;101455.34;4999690;28;20010;-74
2022/10/03 01:48:39;;;;;;;1.80;1.17;;;;;;;8.98;100.00;101456.00;5001471;28;20022;-74
2022/10/03 01:51:12;;;;;;;1.42;0.90;;;;;;;8.96;100.00;101456.22;5018203;28;20053;-74
2022/10/03 01:53:53;;;;;;;1.90;1.03;;;;;;;8.99;100.00;101460.41;4988342;28;20042;-75
2022/10/03 01:56:34;;;;;;;0.98;0.80;;;;;;;9.00;100.00;101456.63;4992062;28;20268;-74
2022/10/03 01:59:11;;;;;;;1.95;0.90;;;;;;;8.98;100.00;101453.28;4985184;28;20038;-74
2022/10/03 02:02:18;;;;;;;3.92;0.80;;;;;;;8.99;100.00;101457.69;4991339;28;20030;-75
2022/10/03 02:05:06;;;;;;;1.80;1.00;;;;;;;8.99;100.00;101449.50;4987571;28;20035;-74
2022/10/03 02:07:42;;;;;;;2.47;1.00;;;;;;;8.91;100.00;101447.91;5004290;28;20072;-74
2022/10/03 02:10:40;;;;;;;2.08;0.98;;;;;;;8.86;100.00;101445.88;4998076;28;20072;-73
2022/10/03 02:13:20;;;;;;;3.67;1.27;;;;;;;8.83;100.00;101440.88;4996795;28;20113;-74
2022/10/03 02:15:54;;;;;;;3.80;1.30;;;;;;;8.79;100.00;101447.88;4993695;28;20034;-74
2022/10/03 02:18:27;;;;;;;;;;;;;;;8.76;100.00;101445.59;4995025;28;20068;-73
2022/10/03 02:21:08;;;;;;;3.03;1.20;;;;;;;8.72;100.00;101447.13;4993351;28;19913;-73
2022/10/03 02:23:33;;;;;;;2.63;1.20;;;;;;;8.69;100.00;101439.41;4993197;28;20022;-74
2022/10/03 02:26:33;;;;;;;2.65;1.08;;;;;;;8.68;100.00;101426.81;4996967;28;20030;-74
2022/10/03 02:29:14;;;;;;;4.22;1.27;;;;;;;8.65;100.00;101443.63;4993367;28;20102;-75
2022/10/03 02:32:30;;;;;;;3.38;1.33;;;;;;;8.60;100.00;101454.38;4991811;28;20023;-75
2022/10/03 02:35:14;;;;;;;2.00;0.93;;;;;;;8.59;100.00;101455.47;4981213;28;20040;-75
2022/10/03 02:38:10;;;;;;;2.97;1.25;;;;;;;8.59;100.00;101458.19;4991278;28;20031;-74
2022/10/03 02:40:46;;;;;;;2.50;1.40;;;;;;;8.63;100.00;101451.19;4996946;28;20030;-74
2022/10/03 02:43:42;;;;;;;3.60;1.27;;;;;;;8.71;100.00;101453.63;4992081;28;20031;-74
2022/10/03 02:46:26;;;;;;;8.15;1.90;;;;;;;8.81;100.00;101453.09;5007878;28;20034;-75
2022/10/03 02:49:30;;;;;;;3.97;1.30;;;;;;;8.91;100.00;101447.91;4994511;28;20018;-75
2022/10/03 02:52:04;;;;;;;2.92;1.45;;;;;;;9.01;100.00;101436.44;4992935;28;20031;-76
2022/10/03 02:54:57;;;;;;;3.22;1.10;;;;;;;9.10;100.00;101435.06;4985148;28;20351;-76
2022/10/03 02:58:20;;;;;;;2.53;1.17;;;;;;;9.19;100.00;101441.84;5015437;28;20057;-76
2022/10/03 03:01:04;;;;;;;2.65;1.10;;;;;;;9.25;100.00;101443.66;4958238;28;20023;-76
2022/10/03 03:03:51;;;;;;;4.03;1.30;;;;;;;9.32;100.00;101440.03;4977073;28;20099;-75
2022/10/03 03:06:28;;;;;;;4.53;0.95;;;;;;;9.36;100.00;101438.47;4988046;28;20038;-76
2022/10/03 03:09:22;;;;;;;2.28;1.27;;;;;;;9.44;100.00;101432.69;4995467;28;20022;-74
2022/10/03 03:11:50;;;;;;;2.28;1.10;;;;;;;9.52;100.00;101431.50;4995304;28;20030;-74
2022/10/03 03:14:17;;;;;;;3.75;1.45;;;;;;;9.56;100.00;101433.56;4993280;28;20078;-74
2022/10/03 03:16:58;;;;;;;2.33;1.35;;;;;;;9.57;100.00;101418.00;4998595;28;20082;-74
2022/10/03 03:19:54;;;;;;;2.10;0.90;;;;;;;9.60;100.00;101421.06;4995635;28;20045;-74
2022/10/03 03:22:31;;;;;;;2.55;1.25;;;;;;;9.62;100.00;101415.38;4994638;28;20030;-72
2022/10/03 03:25:02;;;;;;;2.60;1.00;;;;;;;9.63;100.00;101405.28;4993931;28;20050;-73
2022/10/03 03:27:39;;;;;;;1.42;0.90;;;;;;;9.58;100.00;101412.28;5000573;28;20066;-72
2022/10/03 03:30:10;;;;;;;3.50;1.35;;;;;;;9.57;100.00;101413.34;4998862;28;20072;-73
2022/10/03 03:33:06;;;;;;;2.38;0.90;;;;;;;9.59;100.00;101411.22;4998695;28;20057;-74
2022/10/03 03:35:45;;;;;;;2.72;1.08;;;;;;;9.58;100.00;101409.56;4999246;28;20026;-74
2022/10/03 03:38:24;;;;;;;5.72;1.80;;;;;;;9.46;100.00;101403.22;4997504;28;20030;-74
2022/10/03 03:41:31;;;;;;;2.40;1.40;;;;;;;9.37;100.00;101397.28;4988044;28;20015;-75
2022/10/03 03:44:57;;;;;;;3.10;1.30;;;;;;;9.37;100.00;101396.47;4985179;28;20089;-74
2022/10/03 03:47:35;;;;;;;;;;;;;;;9.33;100.00;101395.25;4958129;28;20039;-73
2022/10/03 03:50:13;;;;;;;4.78;1.17;;;;;;;9.29;100.00;101388.59;4941885;28;19915;-73
2022/10/03 03:53:11;;;;;;;5.47;1.55;;;;;;;9.24;100.00;101392.88;4991892;28;20058;-74
2022/10/03 03:55:48;;;;;;;4.13;0.98;;;;;;;9.21;100.00;101398.81;4987044;28;20109;-73
2022/10/03 03:58:20;;;;;;;3.72;1.23;;;;;;;9.20;100.00;101399.88;5034602;28;20037;-73
2022/10/03 04:01:16;;;;;;;2.53;1.20;;;;;;;9.17;100.00;101413.97;5001920;28;20436;-73
2022/10/03 04:03:57;;;;;;;1.73;0.98;;;;;;;9.17;100.00;101413.97;4991015;28;20056;-73
2022/10/03 04:06:50;;;;;;;1.85;1.15;;;;;;;9.17;100.00;101413.13;4997629;28;20369;-73
2022/10/03 04:09:44;;;;;;;1.13;0.80;;;;;;;9.17;100.00;101418.59;4982946;28;20031;-73
2022/10/03 04:12:28;;;;;;;2.55;1.10;;;;;;;9.14;100.00;101425.38;4999306;28;20091;-73
2022/10/03 04:15:08;;;;;;;7.43;2.30;;;;;;;9.08;100.00;101420.81;4983246;28;20040;-72
2022/10/03 04:21:00;;;;;;;4.85;1.40;;;;;;;8.96;100.00;101417.22;4992371;28;20041;-72
2022/10/03 04:23:51;;;;;;;2.15;1.10;;;;;;;8.90;100.00;101418.97;4996052;28;21357;-75
2022/10/03 04:26:42;;;;;;;1.77;1.02;;;;;;;8.82;100.00;101409.22;5004764;28;20023;-74
2022/10/03 04:29:52;;;;;;;2.90;1.10;;;;;;;8.82;100.00;101417.41;4996853;28;20030;-73
2022/10/03 04:32:33;;;;;;;1.63;0.80;;;;;;;8.77;100.00;101416.41;5012521;28;20023;-73
2022/10/03 04:35:37;;;;;;;2.92;1.20;;;;;;;8.70;100.00;101413.78;5004040;28;20529;-74
2022/10/03 04:38:14;;;;;;;3.97;1.17;;;;;;;8.68;100.00;101410.44;4992114;28;20027;-73
2022/10/03 04:40:59;;;;;;;3.28;1.33;;;;;;;8.72;100.00;101406.22;5001632;28;20088;-73
2022/10/03 04:43:42;;;;;;;1.50;1.00;;;;;;;8.79;100.00;101406.97;4986272;28;20029;-74
2022/10/03 04:46:23;;;;;;;2.03;1.17;;;;;;;8.85;100.00;101411.47;4987893;28;20038;-73
2022/10/03 04:49:02;;;;;;;1.63;1.10;;;;;;;8.90;100.00;101397.97;4999262;28;20021;-74
2022/10/03 04:51:28;;;;;;;1.15;0.95;;;;;;;8.98;100.00;101398.72;4998650;28;20023;-71
2022/10/03 04:54:14;;;;;;;3.03;1.17;;;;;;;9.02;100.00;101389.00;4990754;28;20463;-73
2022/10/03 04:56:51;;;;;;;2.05;1.00;;;;;;;9.03;100.00;101394.22;5002672;28;20038;-74
2022/10/03 04:59:25;;;;;;;1.52;1.08;;;;;;;9.09;100.00;101400.66;4995441;28;20057;-74
2022/10/03 05:02:20;;;;;;;3.88;1.50;;;;;;;9.09;100.00;101395.19;4998386;28;20033;-73
2022/10/03 05:05:10;;;;;;;1.53;1.10;;;;;;;9.13;100.00;101399.13;5002080;28;20038;-72
2022/10/03 05:07:58;;;;;;;1.38;1.00;;;;;;;9.16;100.00;101392.38;4999995;28;20264;-73
2022/10/03 05:10:34;;;;;;;1.40;1.15;;;;;;;9.19;100.00;101391.91;5010874;28;20034;-73
2022/10/03 05:13:44;;;;;;;2.53;1.20;;;;;;;9.17;100.00;101397.59;4993619;28;20026;-73
2022/10/03 05:16:36;;;;;;;2.63;1.30;;;;;;;9.15;100.00;101394.25;4966272;28;20050;-73
2022/10/03 05:19:37;;;;;;;2.67;1.40;;;;;;;9.14;100.00;101409.00;5004321;28;20057;-73
2022/10/03 05:22:17;;;;;;;2.38;1.00;;;;;;;9.11;100.00;101403.16;5000911;28;20018;-74
2022/10/03 05:25:09;;;;;;;3.22;1.30;;;;;;;9.09;100.00;101401.47;5002279;28;20094;-72
2022/10/03 05:27:58;;;;;;;1.42;1.00;;;;;;;9.11;100.00;101408.59;5002947;28;20031;-75
2022/10/03 05:30:35;;;;;;;2.47;1.20;;;;;;;9.13;100.00;101401.88;5001192;28;20440;-73
2022/10/03 05:33:13;;;;;;;1.50;0.98;;;;;;;9.09;100.00;101392.47;5002257;28;20037;-73
2022/10/03 05:36:06;;;;;;;3.05;1.48;;;;;;;9.09;100.00;101397.94;5000018;28;20038;-73
2022/10/03 05:38:43;;;;;;;2.97;1.27;;;;;;;9.10;100.00;101396.88;5002175;28;20026;-74
2022/10/03 05:41:21;;;;;;;1.58;0.90;;;;;;;9.04;100.00;101386.91;5000512;28;20384;-74
2022/10/03 05:44:01;;;;;;;1.98;1.13;;;;;;;9.01;100.00;101390.06;4985564;28;20027;-75
2022/10/03 05:46:57;;;;;;;0.95;0.73;;;;;;;8.96;100.00;101395.41;5002926;28;20026;-75
2022/10/03 05:50:05;;;;;;;1.70;1.20;;;;;;;8.94;100.00;101392.06;5002023;28;20107;-76
2022/10/03 05:52:54;;;;;;;1.60;1.25;;;;;;;8.91;100.00;101394.19;4977711;28;20031;-75
2022/10/03 05:55:44;;;;;;;1.67;1.05;;;;;;;8.96;100.00;101395.41;5001515;28;20064;-74
2022/10/03 05:58:36;;;;;;;2.85;1.35;;;;;;;9.00;100.00;101402.88;5003401;28;20030;-74
2022/10/03 06:01:20;;;;;;;1.77;1.10;;;;;;;9.04;100.00;101397.81;4999894;28;20029;-74
2022/10/03 06:04:01;;;;;;;2.13;1.45;;;;;;;9.09;100.00;101389.75;5004417;28;20037;-72
2022/10/03 06:06:42;;;;;;;2.20;1.35;;;;;;;9.10;100.00;101380.50;5000764;28;20022;-75
2022/10/03 06:09:20;;;;;;;4.00;1.40;;;;;;;9.25;100.00;101396.44;5015968;28;20112;-75
2022/10/03 06:12:09;;;;;;;2.88;1.73;;;;;;;9.22;100.00;101378.63;5003173;28;20014;-74
2022/10/03 06:14:56;;;;;;;3.05;1.42;;;;;;;9.35;100.00;101393.16;4998581;28;20041;-71
2022/10/03 06:17:44;;;;;;;2.90;1.45;;;;;;;9.35;100.00;101401.34;5000253;28;20049;-71
2022/10/03 06:20:37;;;;;;;2.42;1.40;;;;;;;9.41;100.00;101403.13;4998246;28;20070;-74
2022/10/03 06:23:14;;;;;;;2.10;1.17;;;;;;;9.47;100.00;101402.19;4988235;28;20030;-72
2022/10/03 06:26:10;;;;;;;1.90;1.33;;;;;;;9.50;100.00;101388.03;5001349;28;20026;-73
2022/10/03 06:28:37;;;;;;;1.30;1.02;;;;;;;9.57;100.00;101390.69;5001239;28;20491;-71
2022/10/03 06:31:51;;;;;;;1.70;0.95;;;;;;;9.63;100.00;101391.66;4993705;28;20056;-71
2022/10/03 06:34:39;;;;;;;1.80;1.42;;;;;;;9.67;100.00;101382.72;5006262;28;20229;-71
2022/10/03 06:37:26;;;;;;;1.63;1.38;;;;;;;9.72;100.00;101388.31;5006100;28;20046;-71
2022/10/03 06:40:30;;;;;;;5.60;2.30;;;;;;;10.69;100.00;101394.28;4992413;28;20034;-72
2022/10/03 06:43:23;;;;;;;5.60;2.15;;;;;;;12.33;100.00;101396.19;4997813;28;20028;-72
2022/10/03 06:46:19;;;;;;;5.97;2.08;;;;;;;12.34;97.54;101389.63;4997594;28;20030;-73
2022/10/03 06:49:11;;;;;;;3.28;1.30;;;;;;;11.97;96.03;101394.84;4998491;28;20022;-72
2022/10/03 06:51:50;;;;;;;2.50;1.10;;;;;;;11.67;96.92;101388.63;4991643;28;20026;-72
2022/10/03 06:54:53;;;;;;;2.10;1.10;;;;;;;11.50;97.55;101407.78;4995438;28;20568;-72
2022/10/03 06:58:06;;;;;;;1.38;1.10;;;;;;;11.40;97.75;101390.38;4983833;28;20026;-70
2022/10/03 07:01:08;;;;;;;3.65;1.40;;;;;;;12.11;98.44;101392.59;4989472;28;20504;-70
2022/10/03 07:04:51;;;;;;;2.70;1.25;;;;;;;12.00;94.84;101400.69;4996229;28;20045;-73
2022/10/03 07:07:44;;;;;;;3.10;1.70;;;;;;;11.68;96.31;101398.50;5000984;28;20038;-74
2022/10/03 07:10:58;;;;;;;1.77;1.20;;;;;;;11.55;96.23;101404.31;4995747;28;20027;-70
2022/10/03 07:13:39;;;;;;;3.70;1.02;;;;;;;11.46;97.17;101394.84;4992629;28;20041;-72
2022/10/03 07:16:08;;;;;;;2.15;1.10;;;;;;;11.51;97.23;101393.03;5004077;28;20034;-71
2022/10/03 07:19:01;;;;;;;1.65;1.30;;;;;;;11.54;96.90;101378.00;4996077;28;20392;-71
2022/10/03 07:21:52;;;;;;;3.25;1.13;;;;;;;11.58;97.46;101376.44;4993783;28;20106;-72
2022/10/03 07:24:34;;;;;;;3.08;1.35;;;;;;;11.64;96.63;101380.91;5009891;28;20029;-72
2022/10/03 07:27:23;;;;;;;1.88;1.10;;;;;;;11.73;96.08;101383.25;4987534;28;20053;-72
2022/10/03 07:30:17;;;;;;;1.98;1.30;;;;;;;11.84;96.26;101390.50;5010137;28;20050;-71
2022/10/03 07:33:04;;;;;;;5.07;1.40;;;;;;;11.92;95.09;101401.06;4990828;28;20038;-73
2022/10/03 07:41:33;;;;;;;1.70;1.20;;;;;;;12.23;93.86;101394.13;4998076;28;20061;-72
2022/10/03 07:43:58;;;;;;;2.90;1.15;;;;;;;12.35;93.83;101396.78;4993412;28;20057;-72
2022/10/03 07:46:36;;;;;;;2.30;1.00;;;;;;;12.49;92.87;101396.38;5012395;28;20473;-72
2022/10/03 07:49:19;;;;;;;3.45;1.20;;;;;;;12.61;92.45;101390.75;4993461;28;20031;-73
2022/10/03 07:52:00;;;;;;;1.35;1.00;;;;;;;12.73;92.41;101386.81;4997788;28;20591;-73
2022/10/03 07:54:49;;;;;;;2.05;1.20;;;;;;;12.95;91.65;101405.13;4994900;28;20103;-71
2022/10/03 07:58:02;;;;;;;3.60;1.10;;;;;;;13.08;91.15;101415.72;5012857;28;20022;-72
2022/10/03 08:01:04;;;;;;;1.90;1.20;;;;;;;13.20;90.88;101422.97;4994450;28;20093;-73
2022/10/03 08:04:14;;;;;;;1.52;1.10;;;;;;;13.39;90.36;101429.78;4998479;28;20037;-72
2022/10/03 08:06:48;;;;;;;5.10;1.10;;;;;;;13.62;90.28;101430.53;4987282;28;20030;-72
2022/10/03 08:09:47;;;;;;;3.38;1.30;;;;;;;13.81;89.59;101430.13;4994696;28;20189;-72
2022/10/03 08:12:20;;;;;;;2.38;1.17;;;;;;;14.10;89.42;101442.44;4995653;28;20077;-71
2022/10/03 08:14:48;;;;;;;2.22;1.10;;;;;;;14.39;88.77;101444.81;4995169;28;20006;-71
2022/10/03 08:17:46;;;;;;;2.25;1.05;;;;;;;14.71;87.65;101440.34;4997726;28;20090;-72
2022/10/03 08:20:33;;;;;;;4.55;0.82;;;;;;;14.94;86.83;101433.53;4996176;28;20086;-72
2022/10/03 08:23:17;;;;;;;3.22;1.15;;;;;;;15.10;85.72;101437.97;4998604;28;20026;-72
2022/10/03 08:25:54;;;;;;;2.92;1.15;;;;;;;15.17;86.29;101446.81;5000895;28;20027;-73
2022/10/03 08:28:57;;;;;;;3.22;1.05;;;;;;;15.24;85.89;101437.44;5026080;28;20050;-73
2022/10/03 08:31:45;;;;;;;7.60;1.35;;;;;;;15.28;85.60;101438.56;4998137;28;20037;-74
2022/10/03 08:34:29;;;;;;;2.72;1.33;;;;;;;15.39;85.48;101440.25;5017788;28;20037;-73
2022/10/03 08:37:28;;;;;;;4.07;1.20;;;;;;;15.65;85.52;101440.25;4999577;28;20030;-72
2022/10/03 08:40:25;;;;;;;1.60;0.80;;;;;;;16.18;84.34;101428.94;5004989;28;20026;-74
2022/10/03 08:42:56;;;;;;;2.38;0.93;;;;;;;16.66;84.36;101422.94;5013322;28;20038;-75
2022/10/03 08:45:50;;;;;;;5.07;1.20;;;;;;;17.16;82.42;101429.34;5001496;28;20054;-74
2022/10/03 08:48:49;;;;;;;2.40;1.15;;;;;;;17.69;81.72;101425.09;5001697;28;20025;-73
2022/10/03 08:51:46;;;;;;;2.25;0.80;;;;;;;18.28;81.36;101424.00;5000230;28;20030;-74
2022/10/03 08:54:18;;;;;;;4.38;1.05;;;;;;;18.91;80.00;101416.59;4977213;28;20165;-73
2022/10/03 08:57:06;;;;;;;4.03;1.23;;;;;;;19.67;80.46;101424.84;4982705;28;20034;-74
2022/10/03 09:03:17;;;;;;;1.13;0.88;;;;;;;20.91;78.20;101422.53;4999969;28;20037;-73
2022/10/03 09:06:11;;;;;;;2.10;1.17;;;;;;;21.20;77.00;101412.97;4983798;28;20113;-71
2022/10/03 09:08:49;;;;;;;2.75;0.90;;;;;;;21.81;76.07;101432.09;4994525;28;20097;-73
2022/10/03 09:11:53;;;;;;;4.10;1.55;;;;;;;22.18;76.71;101432.78;4996441;28;20022;-73
2022/10/03 09:14:31;;;;;;;2.33;1.15;;;;;;;22.28;74.05;101435.28;5014081;28;20041;-71
2022/10/03 09:17:02;;;;;;;3.20;0.57;;;;;;;22.38;74.26;101440.59;5026779;28;20038;-73
2022/10/03 09:19:48;;;;;;;2.33;1.00;;;;;;;22.46;76.38;101436.22;5015998;28;20046;-73
2022/10/03 09:22:35;;;;;;;1.95;0.90;;;;;;;22.69;74.31;101450.88;5012778;28;20045;-71
2022/10/03 09:25:24;;;;;;;3.75;1.02;;;;;;;24.18;77.70;101440.53;4999971;28;20022;-71
2022/10/03 09:28:14;;;;;;;5.78;2.05;;;;;;;26.54;67.02;101456.59;4998368;28;20061;-74
2022/10/03 09:31:05;;;;;;;3.15;1.15;;;;;;;28.82;68.71;101448.56;4999173;28;20030;-73
2022/10/03 09:33:54;;;;;;;1.73;0.90;;;;;;;30.19;64.70;101442.91;4995335;28;20054;-73
2022/10/03 09:36:22;;;;;;;6.75;1.15;;;;;;;30.99;59.10;101442.16;4997894;28;20137;-72
2022/10/03 09:39:12;;;;;;;2.28;0.90;;;;;;;31.04;62.73;101439.00;4995236;28;20014;-74
2022/10/03 09:41:57;;;;;;;5.50;1.55;;;;;;;30.02;64.96;101435.78;5002366;28;20040;-74
2022/10/03 09:44:52;;;;;;;2.03;1.02;;;;;;;31.93;63.23;101440.47;5001447;28;20034;-73
2022/10/03 09:47:41;;;;;;;3.45;1.00;;;;;;;32.28;56.95;101433.53;4994395;28;20089;-72
2022/10/03 09:50:45;;;;;;;2.70;1.10;;;;;;;32.69;63.81;101430.63;4972567;28;20042;-73
2022/10/03 09:53:23;;;;;;;3.80;1.10;;;;;;;32.53;61.56;101434.56;5002032;28;20057;-74
2022/10/03 09:56:10;;;;;;;4.75;1.33;;;;;;;32.07;66.03;101426.47;5021566;28;20026;-74
2022/10/03 09:59:10;;;;;;;1.90;0.90;;;;;;;35.85;61.40;101417.69;5023067;28;20056;-74
2022/10/03 10:01:46;;;;;;;0.85;0.60;;;;;;;37.53;52.23;101416.34;4977025;28;20076;-73
2022/10/03 10:04:33;;;;;;;3.42;1.23;;;;;;;39.39;48.85;101414.19;5022599;28;20072;-72
2022/10/03 10:07:23;;;;;;;3.58;1.42;;;;;;;41.03;47.85;101418.22;4997102;28;20109;-74
2022/10/03 10:10:18;;;;;;;1.83;1.00;;;;;;;43.37;48.90;101400.75;5014872;28;20049;-74
2022/10/03 10:12:50;;;;;;;1.65;0.90;;;;;;;45.36;45.24;101407.31;4996493;28;20022;-74
2022/10/03 10:15:36;;;;;;;4.00;1.17;;;;;;;46.44;40.45;101384.53;5020328;28;20081;-72
2022/10/03 10:18:54;;;;;;;2.00;1.10;;;;;;;47.69;45.32;101387.47;5019077;28;20017;-72
2022/10/03 10:21:52;;;;;;;2.58;1.17;;;;;;;48.28;44.34;101389.34;5004841;28;20025;-74
2022/10/03 10:25:15;;;;;;;1.60;0.70;;;;;;;48.14;44.88;101398.91;5005448;28;20052;-72
2022/10/03 10:28:16;;;;;;;2.22;0.82;;;;;;;47.45;46.73;101393.47;4954330;28;20034;-74
2022/10/03 10:31:24;;;;;;;5.15;1.63;;;;;;;46.50;45.17;101388.34;4964622;28;20034;-74
2022/10/03 10:34:29;;;;;;;3.38;1.27;;;;;;;46.64;49.14;101390.50;5034540;28;20471;-74
2022/10/03 10:37:17;;;;;;;3.35;1.27;;;;;;;46.27;43.52;101387.91;4998816;28;20033;-73
2022/10/03 10:40:01;;;;;;;5.05;1.52;;;;;;;43.92;46.34;101382.91;5031516;28;20033;-74
2022/10/03 10:43:05;;;;;;;2.08;0.93;;;;;;;41.32;53.22;101388.66;5003143;28;20455;-74
2022/10/03 10:45:45;;;;;;;3.13;1.10;;;;;;;38.69;51.44;101364.63;5014419;28;20940;-74
2022/10/03 10:48:51;;;;;;;2.80;1.00;;;;;;;37.32;59.52;101358.34;4993879;28;20026;-74
2022/10/03 10:51:45;;;;;;;4.53;1.20;;;;;;;36.31;60.58;101359.53;5031225;28;20040;-73
2022/10/03 10:54:34;;;;;;;4.53;1.35;;;;;;;36.10;59.92;101359.75;5016516;28;20092;-72
2022/10/03 10:57:21;;;;;;;5.63;1.30;;;;;;;33.64;45.38;101358.97;4997712;28;20051;-74
2022/10/03 11:00:14;;;;;;;8.25;1.42;;;;;;;31.22;50.83;101350.84;5020253;28;20424;-74
2022/10/03 11:02:55;;;;;;;2.88;1.17;;;;;;;29.70;55.75;101348.59;5001388;28;20040;-73
2022/10/03 11:05:39;;;;;;;3.65;1.30;;;;;;;28.83;56.64;101329.19;4990533;28;20061;-74
2022/10/03 11:08:48;;;;;;;2.67;1.17;;;;;;;27.66;60.88;101340.84;5022060;28;20045;-73
2022/10/03 11:11:41;;;;;;;2.67;1.00;;;;;;;26.27;61.66;101332.75;5012359;28;20554;-73
2022/10/03 11:14:34;;;;;;;2.90;1.17;;;;;;;25.14;57.98;101327.25;5003165;28;20033;-72
2022/10/03 11:17:38;;;;;;;2.00;1.00;;;;;;;24.73;64.59;101323.34;5017165;28;20034;-71
2022/10/03 11:20:25;;;;;;;4.68;1.00;;;;;;;24.93;61.52;101321.69;4998724;28;20684;-72
2022/10/03 11:23:10;;;;;;;5.72;1.27;;;;;;;25.38;62.55;101325.75;5002520;28;20030;-73
2022/10/03 11:26:12;;;;;;;6.70;1.30;;;;;;;26.17;57.99;101322.84;5020069;28;20034;-74
2022/10/03 11:28:59;;;;;;;6.43;1.63;;;;;;;26.28;49.25;101321.19;5019915;28;20026;-72
2022/10/03 11:31:50;;;;;;;5.07;1.70;;;;;;;26.27;50.54;101313.94;5008082;28;20034;-72
2022/10/03 11:35:05;;;;;;;4.60;1.30;;;;;;;25.98;51.61;101314.16;5022309;28;20024;-72
2022/10/03 11:37:59;;;;;;;4.82;1.42;;;;;;;25.94;49.42;101320.47;4964299;28;20041;-72
2022/10/03 11:40:43;;;;;;;6.47;1.48;;;;;;;27.77;49.78;101323.44;4982070;28;20025;-72
2022/10/03 11:44:00;;;;;;;3.58;1.30;;;;;;;29.36;51.81;101317.38;5009841;28;20021;-73
2022/10/03 11:46:43;;;;;;;2.67;0.90;;;;;;;28.64;55.00;101315.91;4997480;28;20045;-74
2022/10/03 11:49:26;;;;;;;5.00;1.20;;;;;;;31.14;53.00;101321.72;5003296;28;20026;-74
2022/10/03 11:52:04;;;;;;;4.10;1.15;;;;;;;32.08;47.84;101314.97;5025950;28;20033;-74
2022/10/03 11:54:38;;;;;;;6.28;1.38;;;;;;;32.69;41.18;101300.38;5025062;28;20053;-74
2022/10/03 11:57:36;;;;;;;5.80;1.08;;;;;;;34.56;46.29;101305.41;5002641;28;20026;-73
2022/10/03 12:00:19;;;;;;;4.63;1.10;;;;;;;36.56;41.76;101307.19;4999876;28;20026;-75
2022/10/03 12:03:13;;;;;;;5.43;1.17;;;;;;;35.96;43.62;101307.41;5023377;28;20049;-74
2022/10/03 12:09:26;;;;;;;3.63;1.13;;;;;;;36.11;45.08;101301.56;4992991;28;20065;-73
2022/10/03 12:12:07;;;;;;;3.78;1.00;;;;;;;36.51;39.71;101297.09;5024844;28;20029;-73
2022/10/03 12:14:46;;;;;;;5.40;0.95;;;;;;;38.36;33.59;101275.91;5007005;28;20040;-73
2022/10/03 12:17:15;;;;;;;3.90;1.10;;;;;;;38.51;28.72;101281.28;5010041;28;20128;-74
2022/10/03 12:19:49;;;;;;;5.20;1.10;;;;;;;36.98;32.71;101305.06;5020349;28;20127;-73
2022/10/03 12:22:41;;;;;;;5.00;1.40;;;;;;;35.25;28.10;101295.34;5004963;28;20104;-75
2022/10/03 12:25:48;;;;;;;8.63;1.42;;;;;;;31.09;33.49;101274.88;5005042;28;20494;-74
2022/10/03 12:28:34;;;;;;;3.65;1.00;;;;;;;30.92;38.43;101264.97;5019731;28;20040;-74
2022/10/03 12:31:16;;;;;;;1.42;0.80;;;;;;;31.10;40.63;101251.09;5024110;28;20101;-75
2022/10/03 12:34:00;;;;;;;3.30;0.95;;;;;;;31.47;38.37;101263.56;5007233;28;20025;-74
2022/10/03 12:36:52;;;;;;;2.65;0.88;;;;;;;29.37;34.84;101254.22;5020112;28;20026;-73
2022/10/03 12:40:04;;;;;;;4.93;1.13;;;;;;;27.44;39.81;101262.81;5026610;28;20056;-75
2022/10/03 12:43:03;;;;;;;4.75;1.35;;;;;;;26.52;40.35;101242.97;5025575;28;20037;-75
2022/10/03 12:45:53;;;;;;;4.50;1.30;;;;;;;25.66;42.31;101257.91;5004035;28;20468;-74
2022/10/03 12:48:46;;;;;;;4.90;1.25;;;;;;;25.12;41.58;101245.63;5005334;28;20041;-73
2022/10/03 12:51:15;;;;;;;2.63;0.80;;;;;;;24.73;45.04;101245.03;5028470;28;20029;-74
2022/10/03 12:53:58;;;;;;;4.55;1.08;;;;;;;24.19;43.18;101227.00;5016515;28;20048;-74
2022/10/03 12:56:34;;;;;;;3.70;1.08;;;;;;;23.79;43.44;101230.19;5006530;28;20105;-74
2022/10/03 12:59:30;;;;;;;4.57;1.00;;;;;;;23.49;44.57;101227.34;5011907;28;20022;-74
2022/10/03 13:02:15;;;;;;;3.85;0.80;;;;;;;24.05;44.49;101241.25;5020473;28;20033;-73
2022/10/03 13:04:59;;;;;;;6.80;0.98;;;;;;;24.66;41.69;101223.22;5020740;28;20036;-73
2022/10/03 13:07:56;;;;;;;9.32;1.08;;;;;;;24.74;41.30;101224.31;5006999;28;20038;-73
2022/10/03 13:10:33;;;;;;;4.82;1.02;;;;;;;24.41;42.52;101202.69;5008350;28;20041;-73
2022/10/03 13:13:23;;;;;;;5.35;1.00;;;;;;;24.63;41.00;101211.91;5007846;28;20472;-74
2022/10/03 13:16:12;;;;;;;5.75;1.27;;;;;;;24.66;40.43;101205.63;5009173;28;20025;-74
2022/10/03 13:18:46;;;;;;;5.05;1.20;;;;;;;25.21;38.83;101215.56;5009845;28;20075;-74
2022/10/03 13:21:31;;;;;;;1.98;0.70;;;;;;;25.35;38.30;101206.06;5012851;28;20045;-72